sensor_id;sensor_type;location;lat;lon;timestamp;P1;durP1;ratioP1;P2;durP2;ratioP2
15012;SDS011;7603;49.432;11.418;2022-12-07T00:01:34;4.13;;;3.83;;
15012;SDS011;7603;49.432;11.418;2022-12-07T00:04:04;5.40;;;4.90;;
15012;SDS011;7603;49.432;11.418;2022-12-07T00:06:32;4.93;;;4.53;;
15012;SDS011;7603;49.432;11.418;2022-12-07T00:09:03;8.50;;;4.97;;
15012;SDS011;7603;49.432;11.418;2022-12-07T00:11:30;4.87;;;4.40;;
15012;SDS011;7603;49.432;11.418;2022-12-07T00:13:57;5.37;;;4.87;;
15012;SDS011;7603;49.432;11.418;2022-12-07T00:16:26;5.10;;;4.63;;
15012;SDS011;7603;49.432;11.418;2022-12-07T00:18:54;4.60;;;4.13;;
15012;SDS011;7603;49.432;11.418;2022-12-07T00:21:24;4.20;;;3.90;;
15012;SDS011;7603;49.432;11.418;2022-12-07T00:23:51;5.70;;;3.77;;
15012;SDS011;7603;49.432;11.418;2022-12-07T00:26:20;5.17;;;4.67;;
15012;SDS011;7603;49.432;11.418;2022-12-07T00:28:51;4.73;;;4.33;;
15012;SDS011;7603;49.432;11.418;2022-12-07T00:31:20;4.00;;;3.67;;
15012;SDS011;7603;49.432;11.418;2022-12-07T00:33:47;5.27;;;4.83;;
15012;SDS011;7603;49.432;11.418;2022-12-07T00:36:15;4.43;;;4.13;;
15012;SDS011;7603;49.432;11.418;2022-12-07T00:38:43;5.10;;;4.60;;
15012;SDS011;7603;49.432;11.418;2022-12-07T00:43:45;4.70;;;4.30;;
15012;SDS011;7603;49.432;11.418;2022-12-07T00:46:11;6.43;;;4.90;;
15012;SDS011;7603;49.432;11.418;2022-12-07T00:48:38;5.30;;;4.80;;
15012;SDS011;7603;49.432;11.418;2022-12-07T00:51:04;7.90;;;5.10;;
15012;SDS011;7603;49.432;11.418;2022-12-07T00:53:31;6.17;;;5.00;;
15012;SDS011;7603;49.432;11.418;2022-12-07T00:56:04;5.93;;;5.03;;
15012;SDS011;7603;49.432;11.418;2022-12-07T00:58:33;5.77;;;5.17;;
15012;SDS011;7603;49.432;11.418;2022-12-07T01:00:59;4.30;;;4.00;;
15012;SDS011;7603;49.432;11.418;2022-12-07T01:03:27;6.63;;;4.80;;
15012;SDS011;7603;49.432;11.418;2022-12-07T01:05:53;5.77;;;5.03;;
15012;SDS011;7603;49.432;11.418;2022-12-07T01:08:20;5.90;;;4.77;;
15012;SDS011;7603;49.432;11.418;2022-12-07T01:10:46;5.10;;;4.47;;
15012;SDS011;7603;49.432;11.418;2022-12-07T01:13:13;6.93;;;5.10;;
15012;SDS011;7603;49.432;11.418;2022-12-07T01:15:42;6.93;;;4.97;;
15012;SDS011;7603;49.432;11.418;2022-12-07T01:18:09;7.97;;;4.80;;
15012;SDS011;7603;49.432;11.418;2022-12-07T01:20:35;5.60;;;5.07;;
15012;SDS011;7603;49.432;11.418;2022-12-07T01:23:01;7.90;;;5.60;;
15012;SDS011;7603;49.432;11.418;2022-12-07T01:25:27;7.80;;;5.20;;
15012;SDS011;7603;49.432;11.418;2022-12-07T01:27:53;5.90;;;5.40;;
15012;SDS011;7603;49.432;11.418;2022-12-07T01:30:18;4.23;;;3.83;;
15012;SDS011;7603;49.432;11.418;2022-12-07T01:32:44;6.00;;;5.30;;
15012;SDS011;7603;49.432;11.418;2022-12-07T01:35:09;6.43;;;5.70;;
15012;SDS011;7603;49.432;11.418;2022-12-07T01:37:36;5.27;;;4.77;;
15012;SDS011;7603;49.432;11.418;2022-12-07T01:40:03;6.77;;;5.17;;
15012;SDS011;7603;49.432;11.418;2022-12-07T01:42:30;7.50;;;5.33;;
15012;SDS011;7603;49.432;11.418;2022-12-07T01:47:43;5.23;;;4.73;;
15012;SDS011;7603;49.432;11.418;2022-12-07T01:50:18;6.30;;;5.70;;
15012;SDS011;7603;49.432;11.418;2022-12-07T01:52:44;6.87;;;5.73;;
15012;SDS011;7603;49.432;11.418;2022-12-07T01:55:13;7.63;;;5.43;;
15012;SDS011;7603;49.432;11.418;2022-12-07T01:57:41;6.77;;;5.03;;
15012;SDS011;7603;49.432;11.418;2022-12-07T02:00:12;6.47;;;5.40;;
15012;SDS011;7603;49.432;11.418;2022-12-07T02:02:55;6.17;;;5.57;;
15012;SDS011;7603;49.432;11.418;2022-12-07T02:05:28;7.07;;;6.13;;
15012;SDS011;7603;49.432;11.418;2022-12-07T02:07:55;7.90;;;4.83;;
15012;SDS011;7603;49.432;11.418;2022-12-07T02:10:23;6.17;;;5.57;;
15012;SDS011;7603;49.432;11.418;2022-12-07T02:12:55;7.27;;;5.70;;
15012;SDS011;7603;49.432;11.418;2022-12-07T02:15:26;6.63;;;5.70;;
15012;SDS011;7603;49.432;11.418;2022-12-07T02:20:54;5.30;;;4.87;;
15012;SDS011;7603;49.432;11.418;2022-12-07T02:23:47;6.60;;;5.30;;
15012;SDS011;7603;49.432;11.418;2022-12-07T02:29:26;6.07;;;5.47;;
15012;SDS011;7603;49.432;11.418;2022-12-07T02:40:19;7.33;;;6.00;;
15012;SDS011;7603;49.432;11.418;2022-12-07T02:42:51;6.17;;;5.57;;
15012;SDS011;7603;49.432;11.418;2022-12-07T02:45:23;8.33;;;6.27;;
15012;SDS011;7603;49.432;11.418;2022-12-07T02:47:53;5.40;;;5.00;;
15012;SDS011;7603;49.432;11.418;2022-12-07T02:50:23;6.10;;;5.60;;
15012;SDS011;7603;49.432;11.418;2022-12-07T02:52:49;7.37;;;5.80;;
15012;SDS011;7603;49.432;11.418;2022-12-07T02:55:15;6.80;;;5.77;;
15012;SDS011;7603;49.432;11.418;2022-12-07T02:58:03;6.57;;;5.47;;
15012;SDS011;7603;49.432;11.418;2022-12-07T03:01:00;11.27;;;6.03;;
15012;SDS011;7603;49.432;11.418;2022-12-07T03:04:14;6.87;;;5.17;;
15012;SDS011;7603;49.432;11.418;2022-12-07T03:06:50;7.13;;;6.33;;
15012;SDS011;7603;49.432;11.418;2022-12-07T03:09:32;7.13;;;5.00;;
15012;SDS011;7603;49.432;11.418;2022-12-07T03:14:41;10.07;;;6.97;;
15012;SDS011;7603;49.432;11.418;2022-12-07T03:17:18;6.27;;;5.13;;
15012;SDS011;7603;49.432;11.418;2022-12-07T03:19:49;6.27;;;5.73;;
15012;SDS011;7603;49.432;11.418;2022-12-07T03:22:19;6.70;;;5.90;;
15012;SDS011;7603;49.432;11.418;2022-12-07T03:24:46;6.50;;;5.43;;
15012;SDS011;7603;49.432;11.418;2022-12-07T03:27:21;8.63;;;5.87;;
15012;SDS011;7603;49.432;11.418;2022-12-07T03:30:02;6.60;;;6.00;;
15012;SDS011;7603;49.432;11.418;2022-12-07T03:32:33;8.53;;;6.90;;
15012;SDS011;7603;49.432;11.418;2022-12-07T03:35:05;5.07;;;4.67;;
15012;SDS011;7603;49.432;11.418;2022-12-07T03:37:52;7.93;;;6.30;;
15012;SDS011;7603;49.432;11.418;2022-12-07T03:40:28;6.13;;;5.53;;
15012;SDS011;7603;49.432;11.418;2022-12-07T03:43:02;7.90;;;6.97;;
15012;SDS011;7603;49.432;11.418;2022-12-07T03:45:32;5.90;;;5.07;;
15012;SDS011;7603;49.432;11.418;2022-12-07T03:48:03;8.97;;;6.93;;
15012;SDS011;7603;49.432;11.418;2022-12-07T03:51:01;7.13;;;6.43;;
15012;SDS011;7603;49.432;11.418;2022-12-07T03:53:51;8.03;;;6.57;;
15012;SDS011;7603;49.432;11.418;2022-12-07T03:56:35;6.63;;;5.97;;
15012;SDS011;7603;49.432;11.418;2022-12-07T03:59:02;8.23;;;6.83;;
15012;SDS011;7603;49.432;11.418;2022-12-07T04:01:28;7.20;;;6.50;;
15012;SDS011;7603;49.432;11.418;2022-12-07T04:03:53;7.27;;;5.60;;
15012;SDS011;7603;49.432;11.418;2022-12-07T04:06:19;6.20;;;5.60;;
15012;SDS011;7603;49.432;11.418;2022-12-07T04:08:45;7.83;;;5.93;;
15012;SDS011;7603;49.432;11.418;2022-12-07T04:11:10;7.50;;;6.13;;
15012;SDS011;7603;49.432;11.418;2022-12-07T04:13:36;5.80;;;5.20;;
15012;SDS011;7603;49.432;11.418;2022-12-07T04:16:21;6.43;;;5.77;;
15012;SDS011;7603;49.432;11.418;2022-12-07T04:18:47;7.77;;;6.30;;
15012;SDS011;7603;49.432;11.418;2022-12-07T04:21:13;7.40;;;6.10;;
15012;SDS011;7603;49.432;11.418;2022-12-07T04:23:38;9.13;;;6.60;;
15012;SDS011;7603;49.432;11.418;2022-12-07T04:26:04;8.20;;;6.30;;
15012;SDS011;7603;49.432;11.418;2022-12-07T04:28:30;6.10;;;5.43;;
15012;SDS011;7603;49.432;11.418;2022-12-07T04:30:55;10.43;;;6.60;;
15012;SDS011;7603;49.432;11.418;2022-12-07T04:33:21;9.37;;;6.37;;
15012;SDS011;7603;49.432;11.418;2022-12-07T04:35:46;9.80;;;6.47;;
15012;SDS011;7603;49.432;11.418;2022-12-07T04:38:12;7.27;;;6.13;;
15012;SDS011;7603;49.432;11.418;2022-12-07T04:40:38;10.67;;;6.60;;
15012;SDS011;7603;49.432;11.418;2022-12-07T04:43:03;9.77;;;7.03;;
15012;SDS011;7603;49.432;11.418;2022-12-07T04:45:29;11.20;;;7.63;;
15012;SDS011;7603;49.432;11.418;2022-12-07T04:47:55;10.67;;;7.60;;
15012;SDS011;7603;49.432;11.418;2022-12-07T04:50:21;11.70;;;7.13;;
15012;SDS011;7603;49.432;11.418;2022-12-07T04:52:46;10.13;;;6.80;;
15012;SDS011;7603;49.432;11.418;2022-12-07T04:55:12;10.87;;;7.73;;
15012;SDS011;7603;49.432;11.418;2022-12-07T04:57:38;12.37;;;7.37;;
15012;SDS011;7603;49.432;11.418;2022-12-07T05:00:04;10.67;;;8.10;;
15012;SDS011;7603;49.432;11.418;2022-12-07T05:02:30;10.73;;;7.43;;
15012;SDS011;7603;49.432;11.418;2022-12-07T05:04:56;12.20;;;7.87;;
15012;SDS011;7603;49.432;11.418;2022-12-07T05:07:21;14.20;;;9.23;;
15012;SDS011;7603;49.432;11.418;2022-12-07T05:09:47;11.57;;;7.83;;
15012;SDS011;7603;49.432;11.418;2022-12-07T05:12:12;8.40;;;6.73;;
15012;SDS011;7603;49.432;11.418;2022-12-07T05:14:38;10.93;;;7.67;;
15012;SDS011;7603;49.432;11.418;2022-12-07T05:17:04;12.27;;;8.57;;
15012;SDS011;7603;49.432;11.418;2022-12-07T05:19:29;9.53;;;7.67;;
15012;SDS011;7603;49.432;11.418;2022-12-07T05:21:55;9.30;;;7.77;;
15012;SDS011;7603;49.432;11.418;2022-12-07T05:24:21;8.80;;;7.07;;
15012;SDS011;7603;49.432;11.418;2022-12-07T05:26:46;6.90;;;6.20;;
15012;SDS011;7603;49.432;11.418;2022-12-07T05:29:13;6.10;;;5.17;;
15012;SDS011;7603;49.432;11.418;2022-12-07T05:31:40;10.07;;;6.33;;
15012;SDS011;7603;49.432;11.418;2022-12-07T05:34:06;4.77;;;4.37;;
15012;SDS011;7603;49.432;11.418;2022-12-07T05:36:33;8.70;;;5.93;;
15012;SDS011;7603;49.432;11.418;2022-12-07T05:38:58;8.60;;;6.60;;
15012;SDS011;7603;49.432;11.418;2022-12-07T05:41:24;8.63;;;5.10;;
15012;SDS011;7603;49.432;11.418;2022-12-07T05:44:08;7.33;;;6.00;;
15012;SDS011;7603;49.432;11.418;2022-12-07T05:46:34;11.33;;;7.33;;
15012;SDS011;7603;49.432;11.418;2022-12-07T05:49:00;8.70;;;6.00;;
15012;SDS011;7603;49.432;11.418;2022-12-07T05:51:26;7.63;;;6.50;;
15012;SDS011;7603;49.432;11.418;2022-12-07T05:53:52;10.50;;;7.33;;
15012;SDS011;7603;49.432;11.418;2022-12-07T05:56:18;9.07;;;6.87;;
15012;SDS011;7603;49.432;11.418;2022-12-07T05:58:44;9.77;;;7.30;;
15012;SDS011;7603;49.432;11.418;2022-12-07T06:01:28;11.63;;;7.77;;
15012;SDS011;7603;49.432;11.418;2022-12-07T06:03:55;11.93;;;7.00;;
15012;SDS011;7603;49.432;11.418;2022-12-07T06:06:20;11.83;;;7.40;;
15012;SDS011;7603;49.432;11.418;2022-12-07T06:08:46;9.40;;;6.20;;
15012;SDS011;7603;49.432;11.418;2022-12-07T06:11:12;14.03;;;8.23;;
15012;SDS011;7603;49.432;11.418;2022-12-07T06:13:56;10.50;;;6.97;;
15012;SDS011;7603;49.432;11.418;2022-12-07T06:16:22;14.30;;;7.20;;
15012;SDS011;7603;49.432;11.418;2022-12-07T06:18:47;11.63;;;8.53;;
15012;SDS011;7603;49.432;11.418;2022-12-07T06:21:13;11.33;;;6.90;;
15012;SDS011;7603;49.432;11.418;2022-12-07T06:23:39;13.33;;;8.13;;
15012;SDS011;7603;49.432;11.418;2022-12-07T06:26:05;9.80;;;7.03;;
15012;SDS011;7603;49.432;11.418;2022-12-07T06:28:30;13.80;;;8.23;;
15012;SDS011;7603;49.432;11.418;2022-12-07T06:30:59;10.50;;;7.83;;
15012;SDS011;7603;49.432;11.418;2022-12-07T06:33:26;8.97;;;7.30;;
15012;SDS011;7603;49.432;11.418;2022-12-07T06:35:52;8.07;;;5.67;;
15012;SDS011;7603;49.432;11.418;2022-12-07T06:38:18;9.93;;;7.07;;
15012;SDS011;7603;49.432;11.418;2022-12-07T06:40:44;11.87;;;7.20;;
15012;SDS011;7603;49.432;11.418;2022-12-07T06:43:10;11.60;;;7.67;;
15012;SDS011;7603;49.432;11.418;2022-12-07T06:45:35;11.23;;;8.17;;
15012;SDS011;7603;49.432;11.418;2022-12-07T06:48:01;10.97;;;8.00;;
15012;SDS011;7603;49.432;11.418;2022-12-07T06:50:26;11.73;;;7.80;;
15012;SDS011;7603;49.432;11.418;2022-12-07T06:52:52;11.57;;;7.87;;
15012;SDS011;7603;49.432;11.418;2022-12-07T06:55:18;11.37;;;6.53;;
15012;SDS011;7603;49.432;11.418;2022-12-07T06:57:44;12.87;;;7.70;;
15012;SDS011;7603;49.432;11.418;2022-12-07T07:00:09;9.80;;;6.73;;
15012;SDS011;7603;49.432;11.418;2022-12-07T07:02:36;9.90;;;7.07;;
15012;SDS011;7603;49.432;11.418;2022-12-07T07:05:02;15.87;;;10.13;;
15012;SDS011;7603;49.432;11.418;2022-12-07T07:07:28;20.03;;;10.03;;
15012;SDS011;7603;49.432;11.418;2022-12-07T07:09:53;11.60;;;8.13;;
15012;SDS011;7603;49.432;11.418;2022-12-07T07:12:19;14.43;;;8.57;;
15012;SDS011;7603;49.432;11.418;2022-12-07T07:14:44;11.27;;;7.53;;
15012;SDS011;7603;49.432;11.418;2022-12-07T07:17:10;8.13;;;6.93;;
15012;SDS011;7603;49.432;11.418;2022-12-07T07:19:35;13.73;;;8.37;;
15012;SDS011;7603;49.432;11.418;2022-12-07T07:22:02;11.33;;;8.13;;
15012;SDS011;7603;49.432;11.418;2022-12-07T07:24:28;12.10;;;6.83;;
15012;SDS011;7603;49.432;11.418;2022-12-07T07:26:54;12.30;;;7.80;;
15012;SDS011;7603;49.432;11.418;2022-12-07T07:29:19;9.43;;;7.17;;
15012;SDS011;7603;49.432;11.418;2022-12-07T07:31:45;12.17;;;7.63;;
15012;SDS011;7603;49.432;11.418;2022-12-07T07:34:11;16.67;;;8.47;;
15012;SDS011;7603;49.432;11.418;2022-12-07T07:36:36;12.10;;;7.40;;
15012;SDS011;7603;49.432;11.418;2022-12-07T07:39:02;10.20;;;7.03;;
15012;SDS011;7603;49.432;11.418;2022-12-07T07:41:28;9.17;;;7.13;;
15012;SDS011;7603;49.432;11.418;2022-12-07T07:43:53;11.97;;;7.93;;
15012;SDS011;7603;49.432;11.418;2022-12-07T07:46:19;13.57;;;8.53;;
15012;SDS011;7603;49.432;11.418;2022-12-07T07:48:45;23.93;;;12.63;;
15012;SDS011;7603;49.432;11.418;2022-12-07T07:51:10;13.27;;;8.00;;
15012;SDS011;7603;49.432;11.418;2022-12-07T07:53:36;8.87;;;6.40;;
15012;SDS011;7603;49.432;11.418;2022-12-07T07:56:02;12.93;;;8.77;;
15012;SDS011;7603;49.432;11.418;2022-12-07T07:58:28;24.20;;;9.67;;
15012;SDS011;7603;49.432;11.418;2022-12-07T08:00:54;11.63;;;7.83;;
15012;SDS011;7603;49.432;11.418;2022-12-07T08:03:19;11.47;;;7.50;;
15012;SDS011;7603;49.432;11.418;2022-12-07T08:05:45;14.60;;;8.83;;
15012;SDS011;7603;49.432;11.418;2022-12-07T08:08:11;11.10;;;7.47;;
15012;SDS011;7603;49.432;11.418;2022-12-07T08:10:37;10.13;;;7.10;;
15012;SDS011;7603;49.432;11.418;2022-12-07T08:13:02;14.57;;;7.83;;
15012;SDS011;7603;49.432;11.418;2022-12-07T08:15:39;8.90;;;6.63;;
15012;SDS011;7603;49.432;11.418;2022-12-07T08:18:06;13.43;;;7.90;;
15012;SDS011;7603;49.432;11.418;2022-12-07T08:20:33;10.03;;;7.50;;
15012;SDS011;7603;49.432;11.418;2022-12-07T08:23:00;12.50;;;7.43;;
15012;SDS011;7603;49.432;11.418;2022-12-07T08:25:26;10.87;;;7.07;;
15012;SDS011;7603;49.432;11.418;2022-12-07T08:27:52;15.03;;;8.50;;
15012;SDS011;7603;49.432;11.418;2022-12-07T08:30:18;16.03;;;8.83;;
15012;SDS011;7603;49.432;11.418;2022-12-07T08:32:44;8.20;;;6.43;;
15012;SDS011;7603;49.432;11.418;2022-12-07T08:35:11;11.73;;;7.60;;
15012;SDS011;7603;49.432;11.418;2022-12-07T08:37:37;12.47;;;8.23;;
15012;SDS011;7603;49.432;11.418;2022-12-07T08:40:04;9.00;;;7.00;;
15012;SDS011;7603;49.432;11.418;2022-12-07T08:42:31;12.93;;;6.90;;
15012;SDS011;7603;49.432;11.418;2022-12-07T08:45:04;13.23;;;8.77;;
15012;SDS011;7603;49.432;11.418;2022-12-07T08:47:35;11.40;;;7.17;;
15012;SDS011;7603;49.432;11.418;2022-12-07T08:50:02;11.60;;;7.30;;
15012;SDS011;7603;49.432;11.418;2022-12-07T08:52:30;11.60;;;6.53;;
15012;SDS011;7603;49.432;11.418;2022-12-07T08:54:57;10.60;;;7.80;;
15012;SDS011;7603;49.432;11.418;2022-12-07T08:57:24;11.23;;;7.10;;
15012;SDS011;7603;49.432;11.418;2022-12-07T08:59:54;10.73;;;8.50;;
15012;SDS011;7603;49.432;11.418;2022-12-07T09:02:20;8.00;;;4.77;;
15012;SDS011;7603;49.432;11.418;2022-12-07T09:04:45;10.47;;;7.50;;
15012;SDS011;7603;49.432;11.418;2022-12-07T09:07:11;10.90;;;7.67;;
15012;SDS011;7603;49.432;11.418;2022-12-07T09:09:37;15.17;;;8.20;;
15012;SDS011;7603;49.432;11.418;2022-12-07T09:12:02;14.40;;;8.00;;
15012;SDS011;7603;49.432;11.418;2022-12-07T09:14:29;15.80;;;8.63;;
15012;SDS011;7603;49.432;11.418;2022-12-07T09:16:54;12.70;;;9.27;;
15012;SDS011;7603;49.432;11.418;2022-12-07T09:19:20;13.20;;;7.73;;
15012;SDS011;7603;49.432;11.418;2022-12-07T09:21:46;12.47;;;7.57;;
15012;SDS011;7603;49.432;11.418;2022-12-07T09:24:14;17.40;;;8.23;;
15012;SDS011;7603;49.432;11.418;2022-12-07T09:26:40;12.17;;;7.57;;
15012;SDS011;7603;49.432;11.418;2022-12-07T09:29:05;15.13;;;8.00;;
15012;SDS011;7603;49.432;11.418;2022-12-07T09:31:31;13.17;;;8.90;;
15012;SDS011;7603;49.432;11.418;2022-12-07T09:33:58;11.50;;;7.40;;
15012;SDS011;7603;49.432;11.418;2022-12-07T09:36:25;9.53;;;7.20;;
15012;SDS011;7603;49.432;11.418;2022-12-07T09:38:51;14.97;;;8.07;;
15012;SDS011;7603;49.432;11.418;2022-12-07T09:41:17;14.93;;;8.23;;
15012;SDS011;7603;49.432;11.418;2022-12-07T09:43:43;10.30;;;7.27;;
15012;SDS011;7603;49.432;11.418;2022-12-07T09:46:13;15.67;;;7.47;;
15012;SDS011;7603;49.432;11.418;2022-12-07T09:48:41;13.97;;;7.50;;
15012;SDS011;7603;49.432;11.418;2022-12-07T09:53:44;14.63;;;8.20;;
15012;SDS011;7603;49.432;11.418;2022-12-07T09:56:12;15.40;;;9.13;;
15012;SDS011;7603;49.432;11.418;2022-12-07T09:58:39;9.90;;;7.73;;
15012;SDS011;7603;49.432;11.418;2022-12-07T10:03:38;11.90;;;7.53;;
15012;SDS011;7603;49.432;11.418;2022-12-07T10:06:05;15.67;;;9.00;;
15012;SDS011;7603;49.432;11.418;2022-12-07T10:08:32;12.40;;;7.90;;
15012;SDS011;7603;49.432;11.418;2022-12-07T10:10:59;34.23;;;15.83;;
15012;SDS011;7603;49.432;11.418;2022-12-07T10:16:49;13.13;;;7.67;;
15012;SDS011;7603;49.432;11.418;2022-12-07T10:19:16;14.77;;;7.27;;
15012;SDS011;7603;49.432;11.418;2022-12-07T10:22:01;9.17;;;7.07;;
15012;SDS011;7603;49.432;11.418;2022-12-07T10:24:30;10.57;;;7.27;;
15012;SDS011;7603;49.432;11.418;2022-12-07T10:26:56;14.03;;;7.97;;
15012;SDS011;7603;49.432;11.418;2022-12-07T10:31:54;11.90;;;7.83;;
15012;SDS011;7603;49.432;11.418;2022-12-07T10:39:49;11.27;;;7.83;;
15012;SDS011;7603;49.432;11.418;2022-12-07T10:44:42;10.27;;;7.07;;
15012;SDS011;7603;49.432;11.418;2022-12-07T10:47:22;10.77;;;6.87;;
15012;SDS011;7603;49.432;11.418;2022-12-07T10:58:49;14.10;;;7.77;;
15012;SDS011;7603;49.432;11.418;2022-12-07T11:01:32;9.40;;;6.67;;
15012;SDS011;7603;49.432;11.418;2022-12-07T11:07:26;8.57;;;6.50;;
15012;SDS011;7603;49.432;11.418;2022-12-07T11:12:29;7.03;;;5.70;;
15012;SDS011;7603;49.432;11.418;2022-12-07T11:17:49;8.87;;;6.33;;
15012;SDS011;7603;49.432;11.418;2022-12-07T11:20:28;8.73;;;6.17;;
15012;SDS011;7603;49.432;11.418;2022-12-07T11:23:03;10.03;;;6.70;;
15012;SDS011;7603;49.432;11.418;2022-12-07T11:25:35;7.13;;;5.87;;
15012;SDS011;7603;49.432;11.418;2022-12-07T11:28:34;9.03;;;6.43;;
15012;SDS011;7603;49.432;11.418;2022-12-07T11:34:03;10.60;;;7.07;;
15012;SDS011;7603;49.432;11.418;2022-12-07T11:36:37;13.97;;;7.57;;
15012;SDS011;7603;49.432;11.418;2022-12-07T11:44:55;10.23;;;7.03;;
15012;SDS011;7603;49.432;11.418;2022-12-07T11:50:26;15.33;;;7.43;;
15012;SDS011;7603;49.432;11.418;2022-12-07T11:53:10;9.40;;;7.27;;
15012;SDS011;7603;49.432;11.418;2022-12-07T11:55:45;10.73;;;7.77;;
15012;SDS011;7603;49.432;11.418;2022-12-07T12:01:21;11.73;;;8.30;;
15012;SDS011;7603;49.432;11.418;2022-12-07T12:15:09;9.10;;;6.17;;
15012;SDS011;7603;49.432;11.418;2022-12-07T12:18:08;7.40;;;5.40;;
15012;SDS011;7603;49.432;11.418;2022-12-07T12:23:22;9.47;;;8.00;;
15012;SDS011;7603;49.432;11.418;2022-12-07T12:25:59;24.00;;;13.07;;
15012;SDS011;7603;49.432;11.418;2022-12-07T12:28:33;12.33;;;7.80;;
15012;SDS011;7603;49.432;11.418;2022-12-07T12:31:05;7.00;;;5.57;;
15012;SDS011;7603;49.432;11.418;2022-12-07T12:33:34;15.33;;;7.90;;
15012;SDS011;7603;49.432;11.418;2022-12-07T12:46:50;11.30;;;6.50;;
15012;SDS011;7603;49.432;11.418;2022-12-07T12:51:48;9.17;;;6.40;;
15012;SDS011;7603;49.432;11.418;2022-12-07T12:54:29;6.37;;;5.70;;
15012;SDS011;7603;49.432;11.418;2022-12-07T13:02:27;6.10;;;5.30;;
15012;SDS011;7603;49.432;11.418;2022-12-07T13:05:23;8.40;;;6.97;;
15012;SDS011;7603;49.432;11.418;2022-12-07T13:07:59;7.90;;;6.27;;
15012;SDS011;7603;49.432;11.418;2022-12-07T13:10:46;9.80;;;7.30;;
15012;SDS011;7603;49.432;11.418;2022-12-07T13:37:02;13.33;;;7.97;;
15012;SDS011;7603;49.432;11.418;2022-12-07T13:39:44;7.17;;;6.47;;
15012;SDS011;7603;49.432;11.418;2022-12-07T13:42:26;7.83;;;5.70;;
15012;SDS011;7603;49.432;11.418;2022-12-07T13:44:52;7.23;;;6.47;;
15012;SDS011;7603;49.432;11.418;2022-12-07T13:47:32;10.33;;;6.90;;
15012;SDS011;7603;49.432;11.418;2022-12-07T13:50:20;11.40;;;5.93;;
15012;SDS011;7603;49.432;11.418;2022-12-07T13:52:47;7.60;;;6.27;;
15012;SDS011;7603;49.432;11.418;2022-12-07T13:55:14;6.97;;;5.67;;
15012;SDS011;7603;49.432;11.418;2022-12-07T13:57:42;8.60;;;6.43;;
15012;SDS011;7603;49.432;11.418;2022-12-07T14:00:19;6.93;;;5.73;;
15012;SDS011;7603;49.432;11.418;2022-12-07T14:02:57;8.77;;;5.93;;
15012;SDS011;7603;49.432;11.418;2022-12-07T14:05:27;7.37;;;4.67;;
15012;SDS011;7603;49.432;11.418;2022-12-07T14:08:00;8.40;;;6.90;;
15012;SDS011;7603;49.432;11.418;2022-12-07T14:10:32;11.73;;;7.27;;
15012;SDS011;7603;49.432;11.418;2022-12-07T14:12:58;8.07;;;6.37;;
15012;SDS011;7603;49.432;11.418;2022-12-07T14:15:29;7.70;;;6.57;;
15012;SDS011;7603;49.432;11.418;2022-12-07T14:17:57;7.67;;;5.80;;
15012;SDS011;7603;49.432;11.418;2022-12-07T14:20:29;7.13;;;5.47;;
15012;SDS011;7603;49.432;11.418;2022-12-07T14:22:58;7.20;;;5.10;;
15012;SDS011;7603;49.432;11.418;2022-12-07T14:25:25;6.73;;;5.40;;
15012;SDS011;7603;49.432;11.418;2022-12-07T14:27:52;8.67;;;6.37;;
15012;SDS011;7603;49.432;11.418;2022-12-07T14:30:20;7.07;;;6.00;;
15012;SDS011;7603;49.432;11.418;2022-12-07T14:32:48;7.63;;;6.23;;
15012;SDS011;7603;49.432;11.418;2022-12-07T14:35:18;10.93;;;5.80;;
15012;SDS011;7603;49.432;11.418;2022-12-07T14:37:45;8.03;;;6.07;;
15012;SDS011;7603;49.432;11.418;2022-12-07T14:40:13;12.43;;;6.43;;
15012;SDS011;7603;49.432;11.418;2022-12-07T14:42:41;5.50;;;4.97;;
15012;SDS011;7603;49.432;11.418;2022-12-07T14:45:13;9.20;;;6.53;;
15012;SDS011;7603;49.432;11.418;2022-12-07T14:47:41;8.63;;;6.17;;
15012;SDS011;7603;49.432;11.418;2022-12-07T14:50:07;7.03;;;5.53;;
15012;SDS011;7603;49.432;11.418;2022-12-07T14:52:36;7.10;;;6.23;;
15012;SDS011;7603;49.432;11.418;2022-12-07T14:55:02;7.57;;;6.20;;
15012;SDS011;7603;49.432;11.418;2022-12-07T14:57:28;6.93;;;5.80;;
15012;SDS011;7603;49.432;11.418;2022-12-07T14:59:53;7.33;;;5.80;;
15012;SDS011;7603;49.432;11.418;2022-12-07T15:02:19;6.73;;;6.00;;
15012;SDS011;7603;49.432;11.418;2022-12-07T15:04:44;9.10;;;6.53;;
15012;SDS011;7603;49.432;11.418;2022-12-07T15:07:20;11.80;;;6.67;;
15012;SDS011;7603;49.432;11.418;2022-12-07T15:09:47;6.53;;;5.93;;
15012;SDS011;7603;49.432;11.418;2022-12-07T15:12:13;7.17;;;6.40;;
15012;SDS011;7603;49.432;11.418;2022-12-07T15:14:39;8.33;;;6.67;;
15012;SDS011;7603;49.432;11.418;2022-12-07T15:17:05;7.27;;;6.57;;
15012;SDS011;7603;49.432;11.418;2022-12-07T15:19:31;6.87;;;6.17;;
15012;SDS011;7603;49.432;11.418;2022-12-07T15:21:57;9.90;;;7.70;;
15012;SDS011;7603;49.432;11.418;2022-12-07T15:24:24;11.90;;;7.93;;
15012;SDS011;7603;49.432;11.418;2022-12-07T15:26:51;10.83;;;7.57;;
15012;SDS011;7603;49.432;11.418;2022-12-07T15:29:17;9.10;;;7.03;;
15012;SDS011;7603;49.432;11.418;2022-12-07T15:31:43;9.53;;;7.10;;
15012;SDS011;7603;49.432;11.418;2022-12-07T15:34:08;15.43;;;8.70;;
15012;SDS011;7603;49.432;11.418;2022-12-07T15:36:34;13.60;;;8.07;;
15012;SDS011;7603;49.432;11.418;2022-12-07T15:39:00;12.53;;;7.90;;
15012;SDS011;7603;49.432;11.418;2022-12-07T15:41:26;9.10;;;8.07;;
15012;SDS011;7603;49.432;11.418;2022-12-07T15:43:52;11.53;;;7.33;;
15012;SDS011;7603;49.432;11.418;2022-12-07T15:46:37;7.67;;;5.73;;
15012;SDS011;7603;49.432;11.418;2022-12-07T15:49:22;10.40;;;5.93;;
15012;SDS011;7603;49.432;11.418;2022-12-07T15:51:48;7.73;;;6.23;;
15012;SDS011;7603;49.432;11.418;2022-12-07T15:54:16;6.70;;;6.00;;
15012;SDS011;7603;49.432;11.418;2022-12-07T15:56:45;9.53;;;6.37;;
15012;SDS011;7603;49.432;11.418;2022-12-07T15:59:11;8.97;;;6.10;;
15012;SDS011;7603;49.432;11.418;2022-12-07T16:01:36;6.30;;;5.53;;
15012;SDS011;7603;49.432;11.418;2022-12-07T16:04:02;3.97;;;3.20;;
15012;SDS011;7603;49.432;11.418;2022-12-07T16:06:28;5.53;;;4.47;;
15012;SDS011;7603;49.432;11.418;2022-12-07T16:08:53;9.27;;;5.03;;
15012;SDS011;7603;49.432;11.418;2022-12-07T16:11:19;5.90;;;4.60;;
15012;SDS011;7603;49.432;11.418;2022-12-07T16:13:45;7.97;;;5.40;;
15012;SDS011;7603;49.432;11.418;2022-12-07T16:16:12;8.70;;;7.13;;
15012;SDS011;7603;49.432;11.418;2022-12-07T16:18:39;7.87;;;6.63;;
15012;SDS011;7603;49.432;11.418;2022-12-07T16:21:06;6.77;;;6.03;;
15012;SDS011;7603;49.432;11.418;2022-12-07T16:23:32;7.93;;;6.13;;
15012;SDS011;7603;49.432;11.418;2022-12-07T16:26:05;9.83;;;6.17;;
15012;SDS011;7603;49.432;11.418;2022-12-07T16:28:32;9.43;;;6.50;;
15012;SDS011;7603;49.432;11.418;2022-12-07T16:31:02;8.60;;;6.63;;
15012;SDS011;7603;49.432;11.418;2022-12-07T16:33:33;9.40;;;7.40;;
15012;SDS011;7603;49.432;11.418;2022-12-07T16:36:00;12.43;;;6.80;;
15012;SDS011;7603;49.432;11.418;2022-12-07T16:38:26;12.17;;;7.73;;
15012;SDS011;7603;49.432;11.418;2022-12-07T16:40:52;11.13;;;7.47;;
15012;SDS011;7603;49.432;11.418;2022-12-07T16:43:18;9.80;;;7.63;;
15012;SDS011;7603;49.432;11.418;2022-12-07T16:45:45;10.57;;;6.90;;
15012;SDS011;7603;49.432;11.418;2022-12-07T16:48:13;13.47;;;7.80;;
15012;SDS011;7603;49.432;11.418;2022-12-07T16:50:40;13.90;;;7.57;;
15012;SDS011;7603;49.432;11.418;2022-12-07T16:53:07;9.03;;;7.50;;
15012;SDS011;7603;49.432;11.418;2022-12-07T16:55:37;15.63;;;7.90;;
15012;SDS011;7603;49.432;11.418;2022-12-07T16:58:03;13.63;;;7.77;;
15012;SDS011;7603;49.432;11.418;2022-12-07T17:00:28;13.93;;;8.23;;
15012;SDS011;7603;49.432;11.418;2022-12-07T17:02:54;14.93;;;7.27;;
15012;SDS011;7603;49.432;11.418;2022-12-07T17:05:20;10.93;;;8.33;;